Time;durP1;ratioP1;P1;durP2;ratioP2;P2;SDS_P1;SDS_P2;PMS_P1;PMS_P2;Temp;Humidity;BMP_temperature;BMP_pressure;BME280_temperature;BME280_humidity;BME280_pressure;Samples;Min_cycle;Max_cycle;Signal;HPM_P1;HPM_P2
2022/12/30 00:00:08;;;;;;;19.92;3.55;;;6.40;99.90;;;;;;5067348;28;20039;-73
2022/12/30 00:02:35;;;;;;;25.38;3.13;;;6.40;99.90;;;;;;5054996;28;20052;-73
2022/12/30 00:05:01;;;;;;;19.85;3.45;;;6.30;99.90;;;;;;5038720;28;20056;-74
2022/12/30 00:07:26;;;;;;;20.33;3.08;;;6.30;99.90;;;;;;5045494;28;20394;-73
2022/12/30 00:09:53;;;;;;;23.75;3.45;;;6.30;99.90;;;;;;5053595;28;20721;-73
2022/12/30 00:34:31;;;;;;;23.25;2.60;;;6.30;99.90;;;;;;5075327;28;20496;-75
2022/12/30 00:36:58;;;;;;;18.77;3.20;;;6.20;99.90;;;;;;5055079;28;20044;-74
2022/12/30 00:39:24;;;;;;;22.10;2.72;;;6.60;99.90;;;;;;5057665;28;20036;-73
2022/12/30 00:44:35;;;;;;;21.40;3.17;;;6.20;99.90;;;;;;5050229;28;20086;-73
2022/12/30 00:47:01;;;;;;;21.73;3.15;;;6.30;99.90;;;;;;5036048;28;20075;-73
2022/12/30 00:57:40;;;;;;;27.70;3.40;;;6.30;99.90;;;;;;5067605;28;20044;-73
2022/12/30 01:00:07;;;;;;;21.17;3.17;;;6.20;99.90;;;;;;5031487;28;20128;-73
2022/12/30 01:02:34;;;;;;;22.17;2.78;;;6.10;99.90;;;;;;5069879;28;20075;-74
2022/12/30 01:05:00;;;;;;;21.40;2.92;;;6.20;99.90;;;;;;5054512;28;20134;-73
2022/12/30 01:07:28;;;;;;;22.60;2.70;;;6.70;99.90;;;;;;5054951;28;20068;-73
2022/12/30 01:09:54;;;;;;;17.48;3.13;;;6.10;99.90;;;;;;5052106;28;20072;-73
2022/12/30 01:12:20;;;;;;;20.30;2.78;;;6.10;99.90;;;;;;5040320;28;20098;-73
2022/12/30 01:14:50;;;;;;;26.65;3.65;;;6.10;99.90;;;;;;5013319;28;20788;-73
2022/12/30 01:17:22;;;;;;;21.85;2.70;;;6.10;99.90;;;;;;5052082;28;20044;-74
2022/12/30 01:19:48;;;;;;;18.63;3.00;;;6.10;99.90;;;;;;5013416;28;20925;-73
2022/12/30 01:22:14;;;;;;;18.15;3.55;;;6.10;99.90;;;;;;5033299;28;20040;-73
2022/12/30 01:24:39;;;;;;;30.75;3.90;;;6.20;99.90;;;;;;5040442;28;20041;-73
2022/12/30 01:27:06;;;;;;;18.70;2.80;;;6.00;99.90;;;;;;5039847;28;20048;-73
2022/12/30 01:29:41;;;;;;;27.83;3.35;;;6.00;99.90;;;;;;5027253;28;20072;-73
2022/12/30 01:32:12;;;;;;;22.52;2.85;;;6.10;99.90;;;;;;5033062;28;20078;-73
2022/12/30 01:34:39;;;;;;;30.10;3.70;;;6.40;99.90;;;;;;5031000;28;20552;-74
2022/12/30 01:37:06;;;;;;;28.08;3.15;;;6.00;99.90;;;;;;5028240;28;20036;-73
2022/12/30 01:39:32;;;;;;;18.13;3.35;;;6.00;99.90;;;;;;5043157;28;20623;-73
2022/12/30 01:41:57;;;;;;;25.90;3.65;;;6.20;99.90;;;;;;5028711;28;20045;-73
2022/12/30 01:44:48;;;;;;;15.50;3.15;;;6.40;99.90;;;;;;5043857;28;20051;-73
2022/12/30 01:47:26;;;;;;;20.17;2.92;;;5.90;99.90;;;;;;5012363;28;20132;-73
2022/12/30 01:49:57;;;;;;;27.67;2.70;;;5.90;99.90;;;;;;5048205;28;20195;-73
2022/12/30 01:52:25;;;;;;;21.55;2.83;;;5.80;99.90;;;;;;5034035;28;20063;-73
2022/12/30 01:54:58;;;;;;;25.33;2.83;;;5.80;99.90;;;;;;5012595;28;20095;-74
2022/12/30 01:57:24;;;;;;;18.08;2.90;;;5.80;99.90;;;;;;5046127;28;20045;-73
2022/12/30 01:59:50;;;;;;;27.15;2.83;;;6.20;99.90;;;;;;5033833;28;20045;-73
2022/12/30 02:02:16;;;;;;;22.67;3.15;;;5.70;99.90;;;;;;5049850;28;20047;-73
2022/12/30 02:04:42;;;;;;;25.60;3.80;;;6.20;99.90;;;;;;5032798;28;20409;-72
2022/12/30 02:07:25;;;;;;;19.35;2.45;;;5.80;99.90;;;;;;5024868;28;21043;-71
2022/12/30 02:09:51;;;;;;;23.85;3.20;;;5.80;99.90;;;;;;5020518;28;20048;-73
2022/12/30 02:12:17;;;;;;;22.58;2.97;;;5.70;99.90;;;;;;5046341;28;20428;-72
2022/12/30 02:14:45;;;;;;;25.33;3.35;;;5.70;99.90;;;;;;5049911;28;20047;-73
2022/12/30 02:17:32;;;;;;;18.35;3.13;;;5.70;99.90;;;;;;5056372;28;20097;-74
2022/12/30 02:20:25;;;;;;;26.45;3.33;;;5.70;99.90;;;;;;5039305;28;20040;-74
2022/12/30 02:23:33;;;;;;;31.90;3.60;;;5.70;99.90;;;;;;5053082;28;20122;-74
2022/12/30 02:26:20;;;;;;;28.23;3.97;;;5.80;99.90;;;;;;5039967;28;20667;-73
2022/12/30 02:29:17;;;;;;;21.17;3.83;;;5.80;99.90;;;;;;5061484;28;20048;-73
2022/12/30 02:31:57;;;;;;;25.30;3.28;;;5.80;99.90;;;;;;5051987;28;20052;-73
2022/12/30 02:34:50;;;;;;;19.85;3.78;;;5.80;99.90;;;;;;5039713;28;20155;-73
2022/12/30 02:37:38;;;;;;;27.30;3.72;;;5.80;99.90;;;;;;5035762;28;20626;-73
2022/12/30 02:40:16;;;;;;;21.85;3.78;;;5.80;99.90;;;;;;5041020;28;20048;-73
2022/12/30 02:45:58;;;;;;;21.63;3.38;;;5.80;99.90;;;;;;5056668;28;20088;-74
2022/12/30 02:48:29;;;;;;;18.17;3.10;;;6.30;99.90;;;;;;5039453;28;20098;-73
2022/12/30 02:53:41;;;;;;;25.90;4.18;;;6.30;99.90;;;;;;5055462;28;20121;-73
2022/12/30 02:56:08;;;;;;;19.52;3.63;;;5.80;99.90;;;;;;5055932;28;20040;-74
2022/12/30 02:58:46;;;;;;;28.63;3.47;;;5.80;99.90;;;;;;5058802;28;20481;-73
2022/12/30 03:04:23;;;;;;;21.05;3.58;;;5.70;99.90;;;;;;5052395;28;20613;-73
2022/12/30 03:07:13;;;;;;;28.67;4.72;;;5.70;99.90;;;;;;5054710;28;20101;-72
2022/12/30 03:13:21;;;;;;;22.88;2.35;;;5.70;99.90;;;;;;5042609;28;20098;-74
2022/12/30 03:16:02;;;;;;;27.45;3.67;;;5.90;99.90;;;;;;5045227;28;20164;-73
2022/12/30 03:18:28;;;;;;;30.13;3.40;;;5.70;99.90;;;;;;5036221;28;20100;-73
2022/12/30 03:20:54;;;;;;;21.35;2.92;;;6.10;99.90;;;;;;5070734;28;20040;-73
2022/12/30 03:28:53;;;;;;;25.88;3.70;;;5.70;99.90;;;;;;5050118;28;20064;-74
2022/12/30 03:31:20;;;;;;;18.63;3.55;;;5.60;99.90;;;;;;5048745;28;20052;-72
2022/12/30 03:33:46;;;;;;;29.13;3.25;;;5.60;99.90;;;;;;5033145;28;20051;-73
2022/12/30 03:36:32;;;;;;;18.50;3.30;;;5.60;99.90;;;;;;5034457;28;20069;-73
2022/12/30 03:39:15;;;;;;;25.65;3.15;;;5.60;99.90;;;;;;5045033;28;20507;-73
2022/12/30 03:41:45;;;;;;;21.27;3.65;;;5.60;99.90;;;;;;5052027;28;20052;-73
2022/12/30 03:44:12;;;;;;;25.15;4.25;;;5.50;99.90;;;;;;5056173;28;20101;-72
2022/12/30 03:46:41;;;;;;;22.08;3.20;;;5.50;99.90;;;;;;5070329;28;20054;-72
2022/12/30 03:49:06;;;;;;;29.15;4.28;;;5.50;99.90;;;;;;5072113;28;20032;-73
2022/12/30 03:51:33;;;;;;;29.40;3.53;;;5.50;99.90;;;;;;5063743;28;20565;-73
2022/12/30 03:53:58;;;;;;;18.83;2.55;;;5.40;99.90;;;;;;5051208;28;20050;-73
2022/12/30 03:56:24;;;;;;;23.38;3.85;;;5.40;99.90;;;;;;5028515;28;20053;-73
2022/12/30 03:58:50;;;;;;;21.23;4.43;;;5.40;99.90;;;;;;5039423;28;20048;-73
2022/12/30 04:01:16;;;;;;;25.55;3.28;;;5.40;99.90;;;;;;5051956;28;20688;-72
2022/12/30 04:03:41;;;;;;;20.88;3.70;;;5.50;99.90;;;;;;5043112;28;20040;-73
2022/12/30 04:06:07;;;;;;;22.30;3.88;;;5.30;99.90;;;;;;5060348;28;20044;-74
2022/12/30 04:08:33;;;;;;;20.23;3.30;;;5.30;99.90;;;;;;5055071;28;20051;-72
2022/12/30 04:10:59;;;;;;;24.98;3.72;;;5.30;99.90;;;;;;5057585;28;20055;-74
2022/12/30 04:13:24;;;;;;;15.88;3.10;;;5.30;99.90;;;;;;5015831;28;20084;-74
2022/12/30 04:15:51;;;;;;;21.95;3.10;;;5.30;99.90;;;;;;5049814;28;20046;-73
2022/12/30 04:18:18;;;;;;;26.48;3.70;;;5.20;99.90;;;;;;5058009;28;20033;-74
2022/12/30 04:20:46;;;;;;;23.10;4.47;;;5.20;99.90;;;;;;5027984;28;20401;-73
2022/12/30 04:23:11;;;;;;;21.98;3.80;;;5.20;99.90;;;;;;5033697;28;20072;-73
2022/12/30 04:25:37;;;;;;;21.00;3.38;;;5.20;99.90;;;;;;5029965;28;20153;-73
2022/12/30 04:28:03;;;;;;;24.33;3.60;;;5.20;99.90;;;;;;5036970;28;20048;-73
2022/12/30 04:30:29;;;;;;;17.38;3.10;;;5.20;99.90;;;;;;5048068;28;20124;-72
2022/12/30 04:32:55;;;;;;;20.70;3.72;;;5.20;99.90;;;;;;5058893;28;20127;-74
2022/12/30 04:35:20;;;;;;;20.38;3.75;;;5.20;99.90;;;;;;5031679;28;20149;-72
2022/12/30 04:37:50;;;;;;;19.58;3.20;;;5.70;99.90;;;;;;5056025;28;20130;-73
2022/12/30 04:40:16;;;;;;;22.27;3.13;;;5.30;99.90;;;;;;5026441;28;20087;-74
2022/12/30 04:42:42;;;;;;;19.73;3.20;;;5.20;99.90;;;;;;5032137;28;20056;-74
2022/12/30 04:45:08;;;;;;;20.33;3.60;;;5.30;99.90;;;;;;5054291;28;20044;-74
2022/12/30 04:47:34;;;;;;;22.67;3.65;;;5.30;99.90;;;;;;5054144;28;20135;-73
2022/12/30 04:49:59;;;;;;;20.65;3.60;;;5.40;99.90;;;;;;5052155;28;20169;-73
2022/12/30 04:52:25;;;;;;;24.17;4.18;;;5.30;99.90;;;;;;5042189;28;20041;-72
2022/12/30 04:54:51;;;;;;;19.42;3.17;;;5.50;99.90;;;;;;5013234;28;20041;-73
2022/12/30 04:57:17;;;;;;;17.38;2.97;;;5.20;99.90;;;;;;5018498;28;20045;-74
2022/12/30 04:59:42;;;;;;;21.50;3.30;;;5.50;99.90;;;;;;5050916;28;20107;-73
2022/12/30 05:02:08;;;;;;;27.88;3.60;;;5.20;99.90;;;;;;5027577;28;20041;-73
2022/12/30 05:04:35;;;;;;;20.52;3.42;;;5.30;99.90;;;;;;5034174;28;20853;-73
2022/12/30 05:07:01;;;;;;;20.25;3.30;;;5.30;99.90;;;;;;5026455;28;20044;-74
2022/12/30 05:09:27;;;;;;;19.33;4.18;;;5.30;99.90;;;;;;5018023;28;20044;-73
2022/12/30 05:11:53;;;;;;;17.00;3.10;;;5.30;99.90;;;;;;5045405;28;20060;-74
2022/12/30 05:14:21;;;;;;;24.60;4.35;;;5.30;99.90;;;;;;5055206;28;20041;-72
2022/12/30 05:16:47;;;;;;;18.95;3.63;;;5.30;99.90;;;;;;5052595;28;20048;-73
2022/12/30 05:19:13;;;;;;;26.10;4.60;;;5.30;99.90;;;;;;5053439;28;20720;-73
2022/12/30 05:21:38;;;;;;;26.95;4.47;;;5.30;99.90;;;;;;5072155;28;20101;-73
2022/12/30 05:26:49;;;;;;;25.50;5.60;;;5.30;99.90;;;;;;5063681;28;20751;-73
2022/12/30 05:29:15;;;;;;;22.02;5.80;;;5.30;99.90;;;;;;5051131;28;20623;-73
2022/12/30 05:31:42;;;;;;;26.30;7.32;;;5.30;99.90;;;;;;5053043;28;20056;-74
2022/12/30 05:34:08;;;;;;;25.45;7.03;;;5.30;99.90;;;;;;5051898;28;20036;-73
2022/12/30 05:36:34;;;;;;;23.13;7.10;;;5.30;99.90;;;;;;5055992;28;20052;-73
2022/12/30 05:39:00;;;;;;;26.10;7.78;;;5.30;99.90;;;;;;5055818;28;20409;-74
2022/12/30 05:41:26;;;;;;;25.30;7.05;;;5.30;99.90;;;;;;5037941;28;20044;-73
2022/12/30 05:43:52;;;;;;;23.65;7.38;;;5.30;99.90;;;;;;5075764;28;20557;-74
2022/12/30 05:46:17;;;;;;;32.45;8.40;;;5.90;99.90;;;;;;5050532;28;20498;-74
2022/12/30 05:48:43;;;;;;;23.75;7.40;;;5.60;99.90;;;;;;5052746;28;20128;-73
2022/12/30 05:51:09;;;;;;;30.88;7.22;;;5.40;99.90;;;;;;5052079;28;20094;-74
2022/12/30 05:53:35;;;;;;;24.55;6.90;;;5.40;99.90;;;;;;5064714;28;20493;-72
2022/12/30 05:56:00;;;;;;;26.58;6.28;;;5.40;99.90;;;;;;5057440;28;20052;-73
2022/12/30 05:58:26;;;;;;;16.83;6.43;;;5.40;99.90;;;;;;5054740;28;20041;-74
2022/12/30 06:00:52;;;;;;;26.55;6.32;;;5.40;99.90;;;;;;5054380;28;20501;-73
2022/12/30 06:03:18;;;;;;;18.33;5.68;;;5.40;99.90;;;;;;5053791;28;20044;-75
2022/12/30 06:05:43;;;;;;;22.67;6.00;;;5.40;99.90;;;;;;5058206;28;20035;-72
2022/12/30 06:08:10;;;;;;;16.83;5.15;;;5.70;99.90;;;;;;5057802;28;20074;-76
2022/12/30 06:10:36;;;;;;;21.77;5.00;;;5.30;99.90;;;;;;5058832;28;20052;-73
2022/12/30 06:13:01;;;;;;;20.13;5.25;;;5.30;99.90;;;;;;5079112;28;20106;-73
2022/12/30 06:15:27;;;;;;;14.80;4.97;;;5.30;99.90;;;;;;5054133;28;20033;-74
2022/12/30 06:17:53;;;;;;;22.23;4.97;;;5.50;99.90;;;;;;5058657;28;20697;-73
2022/12/30 06:20:18;;;;;;;24.70;4.95;;;5.20;99.90;;;;;;5049794;28;20030;-73
2022/12/30 06:22:44;;;;;;;19.85;4.63;;;5.20;99.90;;;;;;5056735;28;20089;-73
2022/12/30 06:25:10;;;;;;;26.77;4.47;;;5.10;99.90;;;;;;5077306;28;20048;-74
2022/12/30 06:27:36;;;;;;;27.27;5.28;;;5.10;99.90;;;;;;5056612;28;20719;-74
2022/12/30 06:30:03;;;;;;;20.52;4.47;;;5.10;99.90;;;;;;5039666;28;20063;-73
2022/12/30 06:32:31;;;;;;;18.52;3.88;;;5.10;99.90;;;;;;5070022;28;21158;-73
2022/12/30 06:34:57;;;;;;;20.63;4.47;;;5.00;99.90;;;;;;5059025;28;20452;-74
2022/12/30 06:37:22;;;;;;;22.77;4.68;;;5.00;99.90;;;;;;5056095;28;20043;-74
2022/12/30 06:39:48;;;;;;;21.00;4.65;;;5.00;99.90;;;;;;5065203;28;20131;-74
2022/12/30 06:42:14;;;;;;;18.05;3.80;;;4.90;99.90;;;;;;5069475;28;20040;-73
2022/12/30 06:44:39;;;;;;;17.50;3.50;;;5.10;99.90;;;;;;5053312;28;20079;-73
2022/12/30 06:47:05;;;;;;;17.65;3.40;;;4.90;99.90;;;;;;5053956;28;20532;-73
2022/12/30 06:49:31;;;;;;;15.68;3.45;;;4.90;99.90;;;;;;5066523;28;20050;-73
2022/12/30 06:51:56;;;;;;;19.77;4.05;;;4.80;99.90;;;;;;5062978;28;20529;-74
2022/12/30 06:54:22;;;;;;;22.45;3.78;;;4.80;99.90;;;;;;5054711;28;20037;-74
2022/12/30 06:56:48;;;;;;;16.65;4.15;;;4.80;99.90;;;;;;5073969;28;20079;-73
2022/12/30 06:59:13;;;;;;;17.35;3.67;;;4.90;99.90;;;;;;5064432;28;20059;-74
2022/12/30 07:01:39;;;;;;;20.02;3.60;;;4.80;99.90;;;;;;5071510;28;20177;-73
2022/12/30 07:04:05;;;;;;;21.67;3.83;;;4.80;99.90;;;;;;5074134;28;20044;-74
2022/12/30 07:06:31;;;;;;;15.57;3.55;;;4.80;99.90;;;;;;5033750;28;20094;-74
2022/12/30 07:08:57;;;;;;;18.08;3.33;;;4.70;99.90;;;;;;5052039;28;20079;-73
2022/12/30 07:11:22;;;;;;;15.98;3.72;;;4.70;99.90;;;;;;5053029;28;20052;-73
2022/12/30 07:13:48;;;;;;;19.90;4.65;;;4.70;99.90;;;;;;5049101;28;20417;-73
2022/12/30 07:16:14;;;;;;;14.98;3.28;;;4.70;99.90;;;;;;5054491;28;20435;-74
2022/12/30 07:18:39;;;;;;;20.17;3.97;;;5.20;99.90;;;;;;5052290;28;20055;-74
2022/12/30 07:21:05;;;;;;;15.65;2.50;;;4.70;99.90;;;;;;5067422;28;20479;-73
2022/12/30 07:23:31;;;;;;;16.10;3.30;;;4.70;99.90;;;;;;5066240;28;20048;-72
2022/12/30 07:25:57;;;;;;;21.58;3.67;;;4.70;99.90;;;;;;5057227;28;20036;-73
2022/12/30 07:28:22;;;;;;;14.52;2.85;;;4.70;99.90;;;;;;5049521;28;20047;-73
2022/12/30 07:30:48;;;;;;;21.23;3.53;;;4.60;99.90;;;;;;5033489;28;20092;-73
2022/12/30 07:33:14;;;;;;;19.38;3.35;;;4.60;99.90;;;;;;5037211;28;20041;-73
2022/12/30 07:35:39;;;;;;;17.90;2.70;;;4.60;99.90;;;;;;5036582;28;20106;-74
2022/12/30 07:38:05;;;;;;;13.88;3.10;;;4.70;99.90;;;;;;5051463;28;20049;-74
2022/12/30 07:40:31;;;;;;;21.75;3.22;;;4.60;99.90;;;;;;5052960;28;20048;-74
2022/12/30 07:42:57;;;;;;;17.25;3.33;;;4.60;99.90;;;;;;5055087;28;20155;-73
2022/12/30 07:45:22;;;;;;;14.57;3.15;;;4.60;99.90;;;;;;5071636;28;20044;-74
2022/12/30 07:47:48;;;;;;;16.15;3.17;;;4.60;99.90;;;;;;5043064;28;20095;-73
2022/12/30 07:50:14;;;;;;;18.05;3.67;;;4.70;99.90;;;;;;5069726;28;20045;-74
2022/12/30 07:52:40;;;;;;;12.15;2.78;;;4.60;99.90;;;;;;5038827;28;20186;-74
2022/12/30 07:55:06;;;;;;;18.83;3.33;;;4.60;99.90;;;;;;5050210;28;20092;-75
2022/12/30 07:57:32;;;;;;;18.02;3.08;;;4.60;99.90;;;;;;5048920;28;20036;-75
2022/12/30 07:59:57;;;;;;;18.30;3.33;;;4.60;99.90;;;;;;5061646;28;20044;-74
2022/12/30 08:02:23;;;;;;;17.08;2.88;;;4.60;99.90;;;;;;5074728;28;20040;-74
2022/12/30 08:04:52;;;;;;;18.80;2.90;;;4.60;99.90;;;;;;5051568;28;20075;-74
2022/12/30 08:07:18;;;;;;;19.08;3.00;;;4.60;99.90;;;;;;5072576;28;20052;-75
2022/12/30 08:09:44;;;;;;;18.42;3.88;;;4.60;99.90;;;;;;5033335;28;20047;-75
2022/12/30 08:12:10;;;;;;;17.10;3.47;;;4.60;99.90;;;;;;5066233;28;20132;-72
2022/12/30 08:14:36;;;;;;;13.18;3.38;;;4.60;99.90;;;;;;5046151;28;20758;-74
2022/12/30 08:17:02;;;;;;;14.25;3.42;;;5.00;99.90;;;;;;5029206;28;20052;-75
2022/12/30 08:19:28;;;;;;;14.30;3.10;;;4.70;99.90;;;;;;5060941;28;20810;-74
2022/12/30 08:21:54;;;;;;;15.95;3.10;;;5.00;99.90;;;;;;5043107;28;20040;-74
2022/12/30 08:24:20;;;;;;;21.10;3.40;;;4.60;99.90;;;;;;5028976;28;20525;-74
2022/12/30 08:26:46;;;;;;;16.65;3.63;;;4.60;99.90;;;;;;5045042;28;20137;-74
2022/12/30 08:29:12;;;;;;;17.67;3.05;;;4.60;99.90;;;;;;5064563;28;20485;-73
2022/12/30 08:31:38;;;;;;;21.83;3.83;;;5.30;99.90;;;;;;5045819;28;20619;-73
2022/12/30 08:34:04;;;;;;;16.60;2.95;;;4.60;99.90;;;;;;5047705;28;20092;-73
2022/12/30 08:36:30;;;;;;;20.08;3.15;;;4.60;99.90;;;;;;5034642;28;20048;-73
2022/12/30 08:39:00;;;;;;;19.33;3.03;;;4.60;99.90;;;;;;5063092;28;20428;-74
2022/12/30 08:41:29;;;;;;;16.52;3.10;;;4.60;99.90;;;;;;5062310;28;20512;-73
2022/12/30 08:43:56;;;;;;;22.85;3.65;;;4.60;99.90;;;;;;5058610;28;20125;-74
2022/12/30 08:46:24;;;;;;;14.25;2.95;;;5.50;99.90;;;;;;5061639;28;20589;-73
2022/12/30 08:48:50;;;;;;;25.30;4.15;;;4.60;99.90;;;;;;5042066;28;20056;-74
2022/12/30 08:51:16;;;;;;;16.92;3.90;;;4.70;99.90;;;;;;5031479;28;20044;-74
2022/12/30 08:53:42;;;;;;;16.17;2.83;;;4.70;99.90;;;;;;5042601;28;20040;-74
2022/12/30 08:56:11;;;;;;;20.23;3.38;;;4.70;99.90;;;;;;5043746;28;20052;-74
2022/12/30 08:58:36;;;;;;;18.45;2.85;;;4.70;99.90;;;;;;5063262;28;20561;-74
2022/12/30 09:01:16;;;;;;;20.17;3.28;;;4.70;99.90;;;;;;5044831;28;20054;-73
2022/12/30 09:03:43;;;;;;;19.80;3.70;;;4.70;99.90;;;;;;5029764;28;20048;-73
2022/12/30 09:06:10;;;;;;;20.17;3.05;;;4.80;99.90;;;;;;5071397;28;20039;-74
2022/12/30 09:08:37;;;;;;;17.00;3.33;;;4.80;99.90;;;;;;5049943;28;20162;-73
2022/12/30 09:11:09;;;;;;;15.32;3.28;;;4.80;99.90;;;;;;5037148;28;20043;-73
2022/12/30 09:13:36;;;;;;;18.35;2.85;;;4.80;99.90;;;;;;5054355;28;20080;-73
2022/12/30 09:16:03;;;;;;;18.88;4.05;;;5.80;99.90;;;;;;5049866;28;20047;-73
2022/12/30 09:18:29;;;;;;;18.45;3.47;;;4.90;99.90;;;;;;5052577;28;20083;-72
2022/12/30 09:20:54;;;;;;;21.70;3.00;;;4.90;99.90;;;;;;5029335;28;20080;-71
2022/12/30 09:23:20;;;;;;;16.65;3.10;;;5.00;99.90;;;;;;5046670;28;20229;-72
2022/12/30 09:25:46;;;;;;;26.38;3.40;;;4.90;99.90;;;;;;5055128;28;20050;-73
2022/12/30 09:28:12;;;;;;;17.58;3.45;;;4.90;99.90;;;;;;5056633;28;20621;-72
2022/12/30 09:30:38;;;;;;;22.10;3.17;;;5.10;99.90;;;;;;5054132;28;21035;-72
2022/12/30 09:33:04;;;;;;;17.73;4.18;;;5.00;99.90;;;;;;5050809;28;20093;-74
2022/12/30 09:35:30;;;;;;;11.63;2.47;;;5.00;99.90;;;;;;5068684;28;20521;-74
2022/12/30 09:37:56;;;;;;;17.83;2.85;;;5.10;99.90;;;;;;5051310;28;20587;-73
2022/12/30 09:40:39;;;;;;;15.85;2.88;;;5.10;99.90;;;;;;5060573;28;20050;-74
2022/12/30 09:43:17;;;;;;;15.38;2.72;;;5.20;99.90;;;;;;5055869;28;20135;-75
2022/12/30 09:45:54;;;;;;;14.95;2.63;;;5.10;99.90;;;;;;5061711;28;20723;-72
2022/12/30 09:48:27;;;;;;;13.05;2.38;;;5.20;99.90;;;;;;5071688;28;20127;-74
2022/12/30 09:51:02;;;;;;;16.30;4.18;;;5.20;99.90;;;;;;5066334;28;20047;-73
2022/12/30 09:53:40;;;;;;;12.32;2.55;;;5.20;99.90;;;;;;5068852;28;20040;-73
2022/12/30 09:56:14;;;;;;;18.25;2.90;;;5.30;99.90;;;;;;5034005;28;20040;-73
2022/12/30 09:58:42;;;;;;;16.00;2.88;;;5.30;99.90;;;;;;5063692;28;20417;-73
2022/12/30 10:01:30;;;;;;;12.88;2.85;;;5.30;99.90;;;;;;5066826;28;20071;-72
2022/12/30 10:03:58;;;;;;;19.13;2.70;;;5.60;99.90;;;;;;5049951;28;20059;-74
2022/12/30 10:06:38;;;;;;;14.98;2.65;;;5.40;99.90;;;;;;5056469;28;20076;-73
2022/12/30 10:09:22;;;;;;;14.60;2.85;;;5.40;99.90;;;;;;5058350;28;20056;-73
2022/12/30 10:11:47;;;;;;;15.88;3.13;;;5.40;99.90;;;;;;5052038;28;20154;-72
2022/12/30 10:14:27;;;;;;;7.88;2.75;;;5.50;99.90;;;;;;5046088;28;20051;-73
2022/12/30 10:17:14;;;;;;;15.52;2.60;;;5.50;99.90;;;;;;5052903;28;20109;-73
2022/12/30 10:19:52;;;;;;;16.95;2.60;;;5.50;99.90;;;;;;5067278;28;20094;-72
2022/12/30 10:22:59;;;;;;;18.88;4.07;;;5.60;99.90;;;;;;5040726;28;20036;-72
2022/12/30 10:25:29;;;;;;;14.02;2.70;;;5.60;99.90;;;;;;5063671;28;20075;-73
2022/12/30 10:27:56;;;;;;;14.13;2.17;;;5.60;99.90;;;;;;5051694;28;20049;-73
2022/12/30 10:30:35;;;;;;;19.20;3.50;;;5.70;99.90;;;;;;5067890;28;20829;-74
2022/12/30 10:33:05;;;;;;;14.15;3.10;;;5.70;99.90;;;;;;5068064;28;20049;-74
2022/12/30 10:35:32;;;;;;;12.27;2.90;;;5.70;99.90;;;;;;5056632;28;20052;-74
2022/12/30 10:38:20;;;;;;;9.90;2.35;;;5.80;99.90;;;;;;5059240;28;20047;-75
2022/12/30 10:41:08;;;;;;;11.77;2.40;;;5.80;99.90;;;;;;5038156;28;20048;-73
2022/12/30 10:43:42;;;;;;;19.63;3.10;;;5.80;99.90;;;;;;5053943;28;20040;-71
2022/12/30 10:46:36;;;;;;;14.55;2.60;;;5.90;99.90;;;;;;5050685;28;20048;-73
2022/12/30 10:49:10;;;;;;;10.75;2.50;;;5.90;99.90;;;;;;5054807;28;20508;-73
2022/12/30 10:51:36;;;;;;;11.55;2.70;;;5.90;99.90;;;;;;5054014;28;20055;-77
2022/12/30 10:54:02;;;;;;;12.07;2.50;;;6.00;99.90;;;;;;5061468;28;20035;-72
2022/12/30 10:56:34;;;;;;;12.68;2.85;;;6.10;99.90;;;;;;5060934;28;20613;-71
2022/12/30 10:59:05;;;;;;;10.20;2.42;;;6.10;99.90;;;;;;5075615;28;20039;-72
2022/12/30 11:01:36;;;;;;;15.90;2.42;;;6.10;99.90;;;;;;5061051;28;20423;-73
2022/12/30 11:04:02;;;;;;;8.88;2.13;;;6.10;99.90;;;;;;5061447;28;20063;-72
2022/12/30 11:06:30;;;;;;;9.85;2.53;;;6.20;99.90;;;;;;5069814;28;20040;-73
2022/12/30 11:09:23;;;;;;;13.50;2.35;;;6.20;99.90;;;;;;5042165;28;20576;-73
2022/12/30 11:14:45;;;;;;;12.63;1.92;;;6.50;99.90;;;;;;5068039;28;20544;-73
2022/12/30 11:17:24;;;;;;;8.75;1.95;;;6.30;99.90;;;;;;5063410;28;20105;-73
2022/12/30 11:20:05;;;;;;;12.15;2.10;;;6.30;99.90;;;;;;5045585;28;20067;-74
2022/12/30 11:22:30;;;;;;;10.65;1.80;;;6.30;99.90;;;;;;5050122;28;20042;-72
2022/12/30 11:25:21;;;;;;;9.35;1.60;;;6.30;99.90;;;;;;5054560;28;20488;-72
2022/12/30 11:27:51;;;;;;;10.93;2.28;;;6.30;99.90;;;;;;5073888;28;20059;-74
2022/12/30 11:30:29;;;;;;;8.38;1.50;;;6.30;99.90;;;;;;5056886;28;20502;-73
2022/12/30 11:32:58;;;;;;;8.90;2.03;;;6.40;99.90;;;;;;5053504;28;20082;-75
2022/12/30 11:35:50;;;;;;;9.40;1.65;;;6.40;99.90;;;;;;5057776;28;20135;-72
2022/12/30 11:38:32;;;;;;;9.45;1.80;;;6.50;99.90;;;;;;5053110;28;20054;-71
2022/12/30 11:41:18;;;;;;;7.43;2.00;;;6.50;99.90;;;;;;5051318;28;20454;-75
2022/12/30 11:43:46;;;;;;;8.20;1.88;;;6.50;99.90;;;;;;5057898;28;20121;-73
2022/12/30 11:46:17;;;;;;;8.20;1.65;;;6.50;99.90;;;;;;5058949;28;20051;-73
2022/12/30 11:48:54;;;;;;;10.95;1.98;;;6.60;99.90;;;;;;5036591;28;20094;-72
2022/12/30 11:51:25;;;;;;;10.48;2.00;;;6.60;99.90;;;;;;5073162;28;20117;-71
2022/12/30 11:54:11;;;;;;;10.80;2.20;;;6.60;99.90;;;;;;5039536;28;20562;-72
2022/12/30 11:56:50;;;;;;;11.38;2.20;;;6.70;99.90;;;;;;5052153;28;20472;-73
2022/12/30 11:59:19;;;;;;;9.93;2.95;;;6.80;99.90;;;;;;5044938;28;20044;-72
2022/12/30 12:01:50;;;;;;;12.55;1.65;;;6.90;99.90;;;;;;5054322;28;20533;-73
2022/12/30 12:04:38;;;;;;;12.07;2.10;;;6.70;99.90;;;;;;5050805;28;20047;-73
2022/12/30 12:07:18;;;;;;;6.80;1.50;;;6.70;99.90;;;;;;5052490;28;20512;-71
2022/12/30 12:10:02;;;;;;;9.45;1.83;;;7.10;99.90;;;;;;5064993;28;20097;-72
2022/12/30 12:12:52;;;;;;;9.10;1.90;;;6.80;99.90;;;;;;5051683;28;20048;-73
2022/12/30 12:15:38;;;;;;;11.90;2.17;;;6.90;99.90;;;;;;5068570;28;20043;-72
2022/12/30 12:18:23;;;;;;;11.75;2.20;;;6.90;99.90;;;;;;5024830;28;20047;-73
2022/12/30 12:21:25;;;;;;;9.57;1.50;;;7.00;99.90;;;;;;5047804;28;20047;-74
2022/12/30 12:24:21;;;;;;;12.52;1.88;;;7.00;99.90;;;;;;5055173;28;20044;-73
2022/12/30 12:27:03;;;;;;;8.07;1.63;;;7.10;99.90;;;;;;5044930;28;20467;-74
2022/12/30 12:29:30;;;;;;;10.10;1.77;;;7.10;99.90;;;;;;5068383;28;20468;-72
2022/12/30 12:32:05;;;;;;;6.53;1.27;;;7.10;99.90;;;;;;5052849;28;20040;-73
2022/12/30 12:35:03;;;;;;;12.40;1.63;;;7.20;99.90;;;;;;5036696;28;20048;-71
2022/12/30 12:37:53;;;;;;;7.80;1.75;;;7.20;99.90;;;;;;5053032;28;20557;-73
2022/12/30 12:40:53;;;;;;;8.63;2.17;;;7.20;99.90;;;;;;5037632;28;20041;-72
2022/12/30 12:43:23;;;;;;;5.28;1.60;;;7.30;99.90;;;;;;5022126;28;20055;-74
2022/12/30 12:46:04;;;;;;;9.25;1.63;;;7.30;99.90;;;;;;5053050;28;20047;-72
2022/12/30 12:48:36;;;;;;;10.23;1.90;;;7.40;99.90;;;;;;5042806;28;20051;-73
2022/12/30 12:51:27;;;;;;;10.45;1.90;;;7.40;99.90;;;;;;5068307;28;20280;-73
2022/12/30 12:54:22;;;;;;;9.10;2.03;;;7.40;99.90;;;;;;5068150;28;20067;-73
2022/12/30 12:57:21;;;;;;;8.57;1.70;;;7.50;99.90;;;;;;5036264;28;20052;-72
2022/12/30 13:00:07;;;;;;;8.90;1.25;;;7.50;99.90;;;;;;5049890;28;20063;-73
2022/12/30 13:02:42;;;;;;;10.45;1.80;;;7.50;99.90;;;;;;5045677;28;20082;-71
2022/12/30 13:05:27;;;;;;;8.73;1.77;;;7.60;99.90;;;;;;5046432;28;20216;-76
2022/12/30 13:08:17;;;;;;;10.05;1.52;;;7.60;99.90;;;;;;5045266;28;20465;-71
2022/12/30 13:11:02;;;;;;;13.07;1.60;;;7.60;99.90;;;;;;5047200;28;20052;-72
2022/12/30 13:13:52;;;;;;;8.27;1.45;;;7.60;99.90;;;;;;5035174;28;20060;-73
2022/12/30 13:16:21;;;;;;;10.70;1.67;;;7.60;99.90;;;;;;5029756;28;20049;-73
2022/12/30 13:18:50;;;;;;;11.13;1.35;;;7.70;99.90;;;;;;5027473;28;20131;-71
2022/12/30 13:21:25;;;;;;;8.85;1.73;;;7.70;99.90;;;;;;5040266;28;20048;-73
2022/12/30 13:23:59;;;;;;;8.77;1.50;;;7.70;99.90;;;;;;5024311;28;20295;-74
2022/12/30 13:26:27;;;;;;;9.50;2.47;;;7.70;99.90;;;;;;5017728;28;20242;-73
2022/12/30 13:28:56;;;;;;;11.35;2.10;;;7.70;99.90;;;;;;5023470;28;20784;-73
2022/12/30 13:31:44;;;;;;;4.38;1.30;;;7.80;99.90;;;;;;5026034;28;20391;-73
2022/12/30 13:34:27;;;;;;;8.70;1.50;;;7.80;99.90;;;;;;5039124;28;20052;-73
2022/12/30 13:37:03;;;;;;;8.00;1.50;;;7.80;99.90;;;;;;5040729;28;20045;-71
2022/12/30 13:39:37;;;;;;;9.85;1.70;;;7.90;99.90;;;;;;5036819;28;20487;-71
2022/12/30 13:42:27;;;;;;;9.00;1.77;;;7.80;99.90;;;;;;5023481;28;20052;-75
2022/12/30 13:44:54;;;;;;;6.93;1.45;;;7.90;99.90;;;;;;5027524;28;20126;-72
2022/12/30 13:47:26;;;;;;;10.15;2.03;;;7.90;99.90;;;;;;5009186;28;20032;-74
2022/12/30 13:49:52;;;;;;;9.35;1.50;;;8.00;99.90;;;;;;5020235;28;20048;-74
2022/12/30 13:52:24;;;;;;;9.32;2.03;;;8.00;99.90;;;;;;5024242;28;20049;-73
2022/12/30 13:54:56;;;;;;;6.75;1.63;;;8.00;99.90;;;;;;5041998;28;20056;-73
2022/12/30 13:57:38;;;;;;;9.07;1.60;;;8.30;99.90;;;;;;5015711;28;20127;-72
2022/12/30 14:00:08;;;;;;;;;;;8.10;99.90;;;;;;5027599;28;20452;-74
2022/12/30 14:02:46;;;;;;;7.28;1.42;;;8.20;99.90;;;;;;5017946;28;19924;-71
2022/12/30 14:05:31;;;;;;;9.88;1.63;;;8.20;99.90;;;;;;5037775;28;20127;-74